Airport View

Enter AWOS ICAO identifier for current METAR.

ex. KFNL

KAQX 100415Z AUTO 00000KT 9SM FEW090 24/24 A2990 RMK AO2

10 Jul 2020 04:20

Frequency: 118.950

Phone: 803-584-3696

Other Area AWOS: KBNL - KJYL - KRBW - KOGB

TAF AMD KOGB 100230Z 1002/1024 VRB04KT P6SM FEW035 SCT120 FM101500 34006KT P6SM SCT250